sensor_id;sensor_type;location;lat;lon;timestamp;temperature;humidity
26254;DHT22;53339;51.378;0.094;2023-05-07T00:01:12;14.20;90.60
26254;DHT22;53339;51.378;0.094;2023-05-07T00:04:06;14.20;90.70
26254;DHT22;53339;51.378;0.094;2023-05-07T00:06:55;14.20;90.70
26254;DHT22;53339;51.378;0.094;2023-05-07T00:09:43;14.20;90.70
26254;DHT22;53339;51.378;0.094;2023-05-07T00:12:20;14.20;90.70
26254;DHT22;53339;51.378;0.094;2023-05-07T00:15:17;14.30;90.70
26254;DHT22;53339;51.378;0.094;2023-05-07T00:18:32;14.20;90.70
26254;DHT22;53339;51.378;0.094;2023-05-07T00:21:04;14.30;90.70
26254;DHT22;53339;51.378;0.094;2023-05-07T00:23:48;14.20;90.60
26254;DHT22;53339;51.378;0.094;2023-05-07T00:26:35;14.20;90.60
26254;DHT22;53339;51.378;0.094;2023-05-07T00:29:04;14.20;90.60
26254;DHT22;53339;51.378;0.094;2023-05-07T00:31:42;14.20;90.60
26254;DHT22;53339;51.378;0.094;2023-05-07T00:34:28;14.20;90.60
26254;DHT22;53339;51.378;0.094;2023-05-07T00:36:58;14.20;90.70
26254;DHT22;53339;51.378;0.094;2023-05-07T00:39:40;14.20;90.60
26254;DHT22;53339;51.378;0.094;2023-05-07T00:42:29;14.10;90.60
26254;DHT22;53339;51.378;0.094;2023-05-07T00:45:04;14.10;90.50
26254;DHT22;53339;51.378;0.094;2023-05-07T00:47:41;14.00;90.60
26254;DHT22;53339;51.378;0.094;2023-05-07T00:50:27;14.00;90.50
26254;DHT22;53339;51.378;0.094;2023-05-07T00:53:14;13.90;90.50
26254;DHT22;53339;51.378;0.094;2023-05-07T00:55:58;13.80;90.40
26254;DHT22;53339;51.378;0.094;2023-05-07T00:58:39;13.70;90.40
26254;DHT22;53339;51.378;0.094;2023-05-07T01:01:12;13.70;90.50
26254;DHT22;53339;51.378;0.094;2023-05-07T01:03:48;13.70;90.50
26254;DHT22;53339;51.378;0.094;2023-05-07T01:06:20;13.60;90.60
26254;DHT22;53339;51.378;0.094;2023-05-07T01:08:54;13.60;90.60
26254;DHT22;53339;51.378;0.094;2023-05-07T01:11:32;13.60;90.60
26254;DHT22;53339;51.378;0.094;2023-05-07T01:14:00;13.60;90.70
26254;DHT22;53339;51.378;0.094;2023-05-07T01:16:33;13.60;90.60
26254;DHT22;53339;51.378;0.094;2023-05-07T01:19:07;13.50;90.60
26254;DHT22;53339;51.378;0.094;2023-05-07T01:22:09;13.50;90.60
26254;DHT22;53339;51.378;0.094;2023-05-07T01:25:29;13.40;90.60
26254;DHT22;53339;51.378;0.094;2023-05-07T01:28:07;13.40;90.60
26254;DHT22;53339;51.378;0.094;2023-05-07T01:30:54;13.40;90.60
26254;DHT22;53339;51.378;0.094;2023-05-07T01:33:27;13.40;90.60
26254;DHT22;53339;51.378;0.094;2023-05-07T01:36:34;13.40;90.60
26254;DHT22;53339;51.378;0.094;2023-05-07T01:39:23;13.40;90.60
26254;DHT22;53339;51.378;0.094;2023-05-07T01:42:04;13.40;90.60
26254;DHT22;53339;51.378;0.094;2023-05-07T01:44:45;13.40;90.50
26254;DHT22;53339;51.378;0.094;2023-05-07T01:47:23;13.40;90.50
26254;DHT22;53339;51.378;0.094;2023-05-07T01:49:53;13.40;90.50
26254;DHT22;53339;51.378;0.094;2023-05-07T01:52:55;13.40;90.40
26254;DHT22;53339;51.378;0.094;2023-05-07T01:55:50;13.30;90.30
26254;DHT22;53339;51.378;0.094;2023-05-07T01:58:31;13.30;90.20
26254;DHT22;53339;51.378;0.094;2023-05-07T02:01:04;13.30;90.10
26254;DHT22;53339;51.378;0.094;2023-05-07T02:03:40;13.20;90.10
26254;DHT22;53339;51.378;0.094;2023-05-07T02:09:35;13.20;90.00
26254;DHT22;53339;51.378;0.094;2023-05-07T02:12:09;13.20;90.00
26254;DHT22;53339;51.378;0.094;2023-05-07T02:14:43;13.20;90.00
26254;DHT22;53339;51.378;0.094;2023-05-07T02:17:15;13.20;90.00
26254;DHT22;53339;51.378;0.094;2023-05-07T02:19:42;13.20;90.00
26254;DHT22;53339;51.378;0.094;2023-05-07T02:22:14;13.10;90.00
26254;DHT22;53339;51.378;0.094;2023-05-07T02:24:50;13.20;90.10
26254;DHT22;53339;51.378;0.094;2023-05-07T02:27:28;13.20;90.20
26254;DHT22;53339;51.378;0.094;2023-05-07T02:30:08;13.20;90.10
26254;DHT22;53339;51.378;0.094;2023-05-07T02:32:38;13.10;90.00
26254;DHT22;53339;51.378;0.094;2023-05-07T02:35:17;13.00;89.90
26254;DHT22;53339;51.378;0.094;2023-05-07T02:37:53;13.00;89.80
26254;DHT22;53339;51.378;0.094;2023-05-07T02:40:23;12.90;89.80
26254;DHT22;53339;51.378;0.094;2023-05-07T02:42:51;12.80;89.90
26254;DHT22;53339;51.378;0.094;2023-05-07T02:45:28;12.80;89.90
26254;DHT22;53339;51.378;0.094;2023-05-07T02:48:08;12.80;89.90
26254;DHT22;53339;51.378;0.094;2023-05-07T02:50:36;12.70;90.00
26254;DHT22;53339;51.378;0.094;2023-05-07T02:53:04;12.70;90.10
26254;DHT22;53339;51.378;0.094;2023-05-07T02:55:36;12.80;90.20
26254;DHT22;53339;51.378;0.094;2023-05-07T02:58:04;12.80;90.20
26254;DHT22;53339;51.378;0.094;2023-05-07T03:00:36;12.80;90.20
26254;DHT22;53339;51.378;0.094;2023-05-07T03:03:22;12.80;90.30
26254;DHT22;53339;51.378;0.094;2023-05-07T03:05:51;12.80;90.30
26254;DHT22;53339;51.378;0.094;2023-05-07T03:08:34;12.80;90.30
26254;DHT22;53339;51.378;0.094;2023-05-07T03:11:08;12.90;90.30
26254;DHT22;53339;51.378;0.094;2023-05-07T03:13:37;12.80;90.30
26254;DHT22;53339;51.378;0.094;2023-05-07T03:16:11;12.80;90.20
26254;DHT22;53339;51.378;0.094;2023-05-07T03:18:42;12.80;90.30
26254;DHT22;53339;51.378;0.094;2023-05-07T03:21:37;12.80;90.20
26254;DHT22;53339;51.378;0.094;2023-05-07T03:24:09;12.80;90.20
26254;DHT22;53339;51.378;0.094;2023-05-07T03:26:42;12.80;90.10
26254;DHT22;53339;51.378;0.094;2023-05-07T03:29:10;12.80;90.20
26254;DHT22;53339;51.378;0.094;2023-05-07T03:32:03;12.70;90.20
26254;DHT22;53339;51.378;0.094;2023-05-07T03:34:35;12.80;90.10
26254;DHT22;53339;51.378;0.094;2023-05-07T03:37:07;12.80;90.20
26254;DHT22;53339;51.378;0.094;2023-05-07T03:39:46;12.80;90.20
26254;DHT22;53339;51.378;0.094;2023-05-07T03:42:24;12.80;90.20
26254;DHT22;53339;51.378;0.094;2023-05-07T03:44:57;12.80;90.10
26254;DHT22;53339;51.378;0.094;2023-05-07T03:47:28;12.80;90.20
26254;DHT22;53339;51.378;0.094;2023-05-07T03:49:59;12.80;90.20
26254;DHT22;53339;51.378;0.094;2023-05-07T03:52:33;12.80;90.10
26254;DHT22;53339;51.378;0.094;2023-05-07T03:55:05;12.80;90.10
26254;DHT22;53339;51.378;0.094;2023-05-07T03:57:43;12.80;90.10
26254;DHT22;53339;51.378;0.094;2023-05-07T04:00:24;12.80;90.10
26254;DHT22;53339;51.378;0.094;2023-05-07T04:02:52;12.80;90.10
26254;DHT22;53339;51.378;0.094;2023-05-07T04:05:30;12.80;90.10
26254;DHT22;53339;51.378;0.094;2023-05-07T04:08:10;12.70;90.10
26254;DHT22;53339;51.378;0.094;2023-05-07T04:10:42;12.70;90.10
26254;DHT22;53339;51.378;0.094;2023-05-07T04:13:22;12.70;90.10
26254;DHT22;53339;51.378;0.094;2023-05-07T04:15:55;12.70;90.10
26254;DHT22;53339;51.378;0.094;2023-05-07T04:18:25;12.70;90.10
26254;DHT22;53339;51.378;0.094;2023-05-07T04:20:57;12.70;90.20
26254;DHT22;53339;51.378;0.094;2023-05-07T04:23:26;12.70;90.10
26254;DHT22;53339;51.378;0.094;2023-05-07T04:26:10;12.70;90.10
26254;DHT22;53339;51.378;0.094;2023-05-07T04:28:48;12.70;90.10
26254;DHT22;53339;51.378;0.094;2023-05-07T04:31:19;12.70;90.10
26254;DHT22;53339;51.378;0.094;2023-05-07T04:33:55;12.70;90.00
26254;DHT22;53339;51.378;0.094;2023-05-07T04:36:28;12.70;90.00
26254;DHT22;53339;51.378;0.094;2023-05-07T04:39:06;12.60;89.90
26254;DHT22;53339;51.378;0.094;2023-05-07T04:41:38;12.70;90.00
26254;DHT22;53339;51.378;0.094;2023-05-07T04:44:07;12.70;89.90
26254;DHT22;53339;51.378;0.094;2023-05-07T04:46:37;12.70;90.00
26254;DHT22;53339;51.378;0.094;2023-05-07T04:49:09;12.70;90.00
26254;DHT22;53339;51.378;0.094;2023-05-07T04:51:47;12.70;90.00
26254;DHT22;53339;51.378;0.094;2023-05-07T04:54:24;12.70;90.00
26254;DHT22;53339;51.378;0.094;2023-05-07T04:57:00;12.70;90.00
26254;DHT22;53339;51.378;0.094;2023-05-07T04:59:29;12.70;90.00
26254;DHT22;53339;51.378;0.094;2023-05-07T05:02:04;12.70;89.90
26254;DHT22;53339;51.378;0.094;2023-05-07T05:04:37;12.70;90.00
26254;DHT22;53339;51.378;0.094;2023-05-07T05:07:06;12.70;90.10
26254;DHT22;53339;51.378;0.094;2023-05-07T05:09:40;12.70;90.00
26254;DHT22;53339;51.378;0.094;2023-05-07T05:12:09;12.70;90.00
26254;DHT22;53339;51.378;0.094;2023-05-07T05:14:45;12.80;90.00
26254;DHT22;53339;51.378;0.094;2023-05-07T05:17:35;12.70;90.00
26254;DHT22;53339;51.378;0.094;2023-05-07T05:20:14;12.80;90.00
26254;DHT22;53339;51.378;0.094;2023-05-07T05:22:46;12.80;90.00
26254;DHT22;53339;51.378;0.094;2023-05-07T05:25:14;12.80;90.10
26254;DHT22;53339;51.378;0.094;2023-05-07T05:27:42;12.80;90.10
26254;DHT22;53339;51.378;0.094;2023-05-07T05:30:11;12.80;90.00
26254;DHT22;53339;51.378;0.094;2023-05-07T05:32:45;12.80;89.90
26254;DHT22;53339;51.378;0.094;2023-05-07T05:35:14;12.80;89.90
26254;DHT22;53339;51.378;0.094;2023-05-07T05:37:46;12.80;89.90
26254;DHT22;53339;51.378;0.094;2023-05-07T05:40:22;12.80;89.90
26254;DHT22;53339;51.378;0.094;2023-05-07T05:43:01;12.80;89.90
26254;DHT22;53339;51.378;0.094;2023-05-07T05:45:46;12.80;89.90
26254;DHT22;53339;51.378;0.094;2023-05-07T05:48:14;12.80;90.00
26254;DHT22;53339;51.378;0.094;2023-05-07T05:50:43;12.80;90.00
26254;DHT22;53339;51.378;0.094;2023-05-07T05:53:18;12.90;90.10
26254;DHT22;53339;51.378;0.094;2023-05-07T05:55:50;12.90;90.20
26254;DHT22;53339;51.378;0.094;2023-05-07T05:58:23;12.90;90.00
26254;DHT22;53339;51.378;0.094;2023-05-07T06:01:01;12.90;89.90
26254;DHT22;53339;51.378;0.094;2023-05-07T06:03:43;12.90;89.80
26254;DHT22;53339;51.378;0.094;2023-05-07T06:06:18;12.90;89.80
26254;DHT22;53339;51.378;0.094;2023-05-07T06:08:47;12.80;89.90
26254;DHT22;53339;51.378;0.094;2023-05-07T06:11:31;12.90;90.00
26254;DHT22;53339;51.378;0.094;2023-05-07T06:14:04;12.90;89.90
26254;DHT22;53339;51.378;0.094;2023-05-07T06:16:33;12.90;89.90
26254;DHT22;53339;51.378;0.094;2023-05-07T06:19:12;12.90;89.90
26254;DHT22;53339;51.378;0.094;2023-05-07T06:21:42;13.00;89.90
26254;DHT22;53339;51.378;0.094;2023-05-07T06:24:09;13.00;90.00
26254;DHT22;53339;51.378;0.094;2023-05-07T06:26:39;13.10;90.00
26254;DHT22;53339;51.378;0.094;2023-05-07T06:29:08;13.00;89.90
26254;DHT22;53339;51.378;0.094;2023-05-07T06:31:36;13.10;89.90
26254;DHT22;53339;51.378;0.094;2023-05-07T06:34:07;13.10;89.80
26254;DHT22;53339;51.378;0.094;2023-05-07T06:36:37;13.10;89.80
26254;DHT22;53339;51.378;0.094;2023-05-07T06:39:31;13.10;89.80
26254;DHT22;53339;51.378;0.094;2023-05-07T06:42:01;13.10;89.80
26254;DHT22;53339;51.378;0.094;2023-05-07T06:44:36;13.10;89.80
26254;DHT22;53339;51.378;0.094;2023-05-07T06:47:14;13.10;89.80
26254;DHT22;53339;51.378;0.094;2023-05-07T06:49:54;13.20;89.90
26254;DHT22;53339;51.378;0.094;2023-05-07T06:52:29;13.20;89.90
26254;DHT22;53339;51.378;0.094;2023-05-07T06:54:57;13.20;89.80
26254;DHT22;53339;51.378;0.094;2023-05-07T06:57:32;13.20;89.80
26254;DHT22;53339;51.378;0.094;2023-05-07T07:00:01;13.20;89.70
26254;DHT22;53339;51.378;0.094;2023-05-07T07:02:32;13.20;89.70
26254;DHT22;53339;51.378;0.094;2023-05-07T07:05:00;13.20;89.70
26254;DHT22;53339;51.378;0.094;2023-05-07T07:07:38;13.30;89.70
26254;DHT22;53339;51.378;0.094;2023-05-07T07:10:07;13.30;89.70
26254;DHT22;53339;51.378;0.094;2023-05-07T07:12:39;13.30;89.70
26254;DHT22;53339;51.378;0.094;2023-05-07T07:15:07;13.30;89.70
26254;DHT22;53339;51.378;0.094;2023-05-07T07:17:36;13.30;89.90
26254;DHT22;53339;51.378;0.094;2023-05-07T07:20:14;13.40;89.80
26254;DHT22;53339;51.378;0.094;2023-05-07T07:23:12;13.30;89.70
26254;DHT22;53339;51.378;0.094;2023-05-07T07:25:56;13.40;89.70
26254;DHT22;53339;51.378;0.094;2023-05-07T07:28:27;13.40;89.80
26254;DHT22;53339;51.378;0.094;2023-05-07T07:30:59;13.50;89.90
26254;DHT22;53339;51.378;0.094;2023-05-07T07:33:31;13.50;89.90
26254;DHT22;53339;51.378;0.094;2023-05-07T07:36:05;13.60;89.80
26254;DHT22;53339;51.378;0.094;2023-05-07T07:38:39;13.60;89.80
26254;DHT22;53339;51.378;0.094;2023-05-07T07:41:12;13.60;89.70
26254;DHT22;53339;51.378;0.094;2023-05-07T07:43:51;13.60;89.60
26254;DHT22;53339;51.378;0.094;2023-05-07T07:46:30;13.60;89.60
26254;DHT22;53339;51.378;0.094;2023-05-07T07:52:08;13.60;89.60
26254;DHT22;53339;51.378;0.094;2023-05-07T07:54:43;13.60;89.40
26254;DHT22;53339;51.378;0.094;2023-05-07T07:57:16;13.60;89.40
26254;DHT22;53339;51.378;0.094;2023-05-07T07:59:44;13.60;89.30
26254;DHT22;53339;51.378;0.094;2023-05-07T08:02:15;13.60;89.30
26254;DHT22;53339;51.378;0.094;2023-05-07T08:04:45;13.60;89.10
26254;DHT22;53339;51.378;0.094;2023-05-07T08:07:14;13.60;89.00
26254;DHT22;53339;51.378;0.094;2023-05-07T08:09:52;13.60;89.10
26254;DHT22;53339;51.378;0.094;2023-05-07T08:12:25;13.70;89.00
26254;DHT22;53339;51.378;0.094;2023-05-07T08:14:56;13.60;88.80
26254;DHT22;53339;51.378;0.094;2023-05-07T08:18:02;13.70;88.80
26254;DHT22;53339;51.378;0.094;2023-05-07T08:20:33;13.70;88.90
26254;DHT22;53339;51.378;0.094;2023-05-07T08:23:26;13.80;88.80
26254;DHT22;53339;51.378;0.094;2023-05-07T08:26:08;13.90;88.70
26254;DHT22;53339;51.378;0.094;2023-05-07T08:28:41;13.90;88.40
26254;DHT22;53339;51.378;0.094;2023-05-07T08:31:09;14.00;88.40
26254;DHT22;53339;51.378;0.094;2023-05-07T08:33:49;14.10;88.20
26254;DHT22;53339;51.378;0.094;2023-05-07T08:36:24;14.10;88.00
26254;DHT22;53339;51.378;0.094;2023-05-07T08:38:54;14.20;87.80
26254;DHT22;53339;51.378;0.094;2023-05-07T08:41:32;14.30;87.80
26254;DHT22;53339;51.378;0.094;2023-05-07T08:44:06;14.40;87.60
26254;DHT22;53339;51.378;0.094;2023-05-07T08:46:39;14.50;87.60
26254;DHT22;53339;51.378;0.094;2023-05-07T08:49:17;14.60;87.50
26254;DHT22;53339;51.378;0.094;2023-05-07T08:51:52;14.70;87.30
26254;DHT22;53339;51.378;0.094;2023-05-07T08:54:23;14.70;87.30
26254;DHT22;53339;51.378;0.094;2023-05-07T08:56:54;14.70;87.00
26254;DHT22;53339;51.378;0.094;2023-05-07T08:59:35;14.70;86.80
26254;DHT22;53339;51.378;0.094;2023-05-07T09:02:24;14.70;86.80
26254;DHT22;53339;51.378;0.094;2023-05-07T09:04:58;14.70;86.30
26254;DHT22;53339;51.378;0.094;2023-05-07T09:07:46;14.70;86.40
26254;DHT22;53339;51.378;0.094;2023-05-07T09:10:16;14.80;86.50
26254;DHT22;53339;51.378;0.094;2023-05-07T09:12:50;14.80;86.00
26254;DHT22;53339;51.378;0.094;2023-05-07T09:15:22;14.80;86.10
26254;DHT22;53339;51.378;0.094;2023-05-07T09:17:59;14.90;86.00
26254;DHT22;53339;51.378;0.094;2023-05-07T09:21:00;15.10;86.20
26254;DHT22;53339;51.378;0.094;2023-05-07T09:23:41;15.20;86.00
26254;DHT22;53339;51.378;0.094;2023-05-07T09:26:38;15.30;86.10
26254;DHT22;53339;51.378;0.094;2023-05-07T09:29:10;15.50;86.20
26254;DHT22;53339;51.378;0.094;2023-05-07T09:31:40;15.70;86.20
26254;DHT22;53339;51.378;0.094;2023-05-07T09:34:19;15.90;86.20
26254;DHT22;53339;51.378;0.094;2023-05-07T09:37:06;16.10;85.20
26254;DHT22;53339;51.378;0.094;2023-05-07T09:39:51;16.30;85.80
26254;DHT22;53339;51.378;0.094;2023-05-07T09:42:36;16.50;84.20
26254;DHT22;53339;51.378;0.094;2023-05-07T09:45:29;16.60;84.70
26254;DHT22;53339;51.378;0.094;2023-05-07T09:48:14;16.80;84.10
26254;DHT22;53339;51.378;0.094;2023-05-07T09:50:50;17.10;84.30
26254;DHT22;53339;51.378;0.094;2023-05-07T09:53:43;17.30;84.70
26254;DHT22;53339;51.378;0.094;2023-05-07T09:56:25;17.50;82.90
26254;DHT22;53339;51.378;0.094;2023-05-07T09:59:03;17.50;81.60
26254;DHT22;53339;51.378;0.094;2023-05-07T10:01:41;17.40;81.90
26254;DHT22;53339;51.378;0.094;2023-05-07T10:04:14;17.30;81.20
26254;DHT22;53339;51.378;0.094;2023-05-07T10:06:50;17.20;81.40
26254;DHT22;53339;51.378;0.094;2023-05-07T10:09:21;17.10;81.70
26254;DHT22;53339;51.378;0.094;2023-05-07T10:12:03;17.00;81.70
26254;DHT22;53339;51.378;0.094;2023-05-07T10:14:38;17.00;82.10
26254;DHT22;53339;51.378;0.094;2023-05-07T10:17:09;17.10;83.10
26254;DHT22;53339;51.378;0.094;2023-05-07T10:19:56;17.20;83.10
26254;DHT22;53339;51.378;0.094;2023-05-07T10:22:48;17.20;82.90
26254;DHT22;53339;51.378;0.094;2023-05-07T10:25:36;17.10;81.60
26254;DHT22;53339;51.378;0.094;2023-05-07T10:28:41;16.90;81.40
26254;DHT22;53339;51.378;0.094;2023-05-07T10:31:52;16.90;81.80
26254;DHT22;53339;51.378;0.094;2023-05-07T10:34:45;16.90;81.60
26254;DHT22;53339;51.378;0.094;2023-05-07T10:37:34;17.00;82.00
26254;DHT22;53339;51.378;0.094;2023-05-07T10:43:44;17.00;80.30
26254;DHT22;53339;51.378;0.094;2023-05-07T10:46:33;17.10;80.90
26254;DHT22;53339;51.378;0.094;2023-05-07T10:49:23;17.10;80.10
26254;DHT22;53339;51.378;0.094;2023-05-07T11:04:19;17.30;79.50
26254;DHT22;53339;51.378;0.094;2023-05-07T11:06:20;17.50;79.90
26254;DHT22;53339;51.378;0.094;2023-05-07T11:09:11;17.60;80.30
26254;DHT22;53339;51.378;0.094;2023-05-07T11:11:56;17.60;79.30
26254;DHT22;53339;51.378;0.094;2023-05-07T11:15:11;17.60;79.30
26254;DHT22;53339;51.378;0.094;2023-05-07T11:18:37;17.70;78.20
26254;DHT22;53339;51.378;0.094;2023-05-07T11:21:38;17.70;78.10
26254;DHT22;53339;51.378;0.094;2023-05-07T11:24:53;17.70;78.20
26254;DHT22;53339;51.378;0.094;2023-05-07T11:27:34;17.70;77.40
26254;DHT22;53339;51.378;0.094;2023-05-07T11:31:09;17.60;77.80
26254;DHT22;53339;51.378;0.094;2023-05-07T11:34:13;17.70;78.00
26254;DHT22;53339;51.378;0.094;2023-05-07T11:36:53;17.70;77.90
26254;DHT22;53339;51.378;0.094;2023-05-07T11:39:47;17.80;77.90
26254;DHT22;53339;51.378;0.094;2023-05-07T11:42:34;17.90;76.80
26254;DHT22;53339;51.378;0.094;2023-05-07T11:45:19;17.90;77.40
26254;DHT22;53339;51.378;0.094;2023-05-07T11:48:00;17.90;77.00
26254;DHT22;53339;51.378;0.094;2023-05-07T11:51:12;17.80;76.50
26254;DHT22;53339;51.378;0.094;2023-05-07T11:54:23;17.80;76.40
26254;DHT22;53339;51.378;0.094;2023-05-07T11:57:00;17.70;77.30
26254;DHT22;53339;51.378;0.094;2023-05-07T11:59:38;17.80;77.80
26254;DHT22;53339;51.378;0.094;2023-05-07T12:05:20;17.80;76.90
26254;DHT22;53339;51.378;0.094;2023-05-07T12:07:57;17.70;76.40
26254;DHT22;53339;51.378;0.094;2023-05-07T12:10:49;17.80;76.70
26254;DHT22;53339;51.378;0.094;2023-05-07T12:13:31;17.90;78.00
26254;DHT22;53339;51.378;0.094;2023-05-07T12:16:30;18.10;78.60
26254;DHT22;53339;51.378;0.094;2023-05-07T12:19:16;18.40;78.30
26254;DHT22;53339;51.378;0.094;2023-05-07T12:22:01;18.50;75.80
26254;DHT22;53339;51.378;0.094;2023-05-07T12:25:00;18.40;75.70
26254;DHT22;53339;51.378;0.094;2023-05-07T12:28:00;18.40;76.00
26254;DHT22;53339;51.378;0.094;2023-05-07T12:30:53;18.50;77.10
26254;DHT22;53339;51.378;0.094;2023-05-07T12:33:56;18.80;77.60
26254;DHT22;53339;51.378;0.094;2023-05-07T12:36:45;19.20;76.60
26254;DHT22;53339;51.378;0.094;2023-05-07T12:39:34;19.50;76.00
26254;DHT22;53339;51.378;0.094;2023-05-07T12:42:36;19.50;73.00
26254;DHT22;53339;51.378;0.094;2023-05-07T12:45:27;19.40;73.60
26254;DHT22;53339;51.378;0.094;2023-05-07T12:48:15;19.30;73.10
26254;DHT22;53339;51.378;0.094;2023-05-07T12:51:04;19.20;74.20
26254;DHT22;53339;51.378;0.094;2023-05-07T12:53:47;19.20;73.20
26254;DHT22;53339;51.378;0.094;2023-05-07T12:56:46;19.20;73.80
26254;DHT22;53339;51.378;0.094;2023-05-07T12:59:32;19.40;74.80
26254;DHT22;53339;51.378;0.094;2023-05-07T13:02:20;19.60;74.50
26254;DHT22;53339;51.378;0.094;2023-05-07T13:05:00;20.00;71.70
26254;DHT22;53339;51.378;0.094;2023-05-07T13:07:58;20.10;71.20
26254;DHT22;53339;51.378;0.094;2023-05-07T13:11:04;19.90;73.40
26254;DHT22;53339;51.378;0.094;2023-05-07T13:13:42;19.70;73.50
26254;DHT22;53339;51.378;0.094;2023-05-07T13:16:46;19.50;72.20
26254;DHT22;53339;51.378;0.094;2023-05-07T13:19:44;19.30;71.70
26254;DHT22;53339;51.378;0.094;2023-05-07T13:22:40;19.30;71.80
26254;DHT22;53339;51.378;0.094;2023-05-07T13:25:52;19.30;72.60
26254;DHT22;53339;51.378;0.094;2023-05-07T13:28:57;19.60;69.50
26254;DHT22;53339;51.378;0.094;2023-05-07T13:32:00;19.80;68.40
26254;DHT22;53339;51.378;0.094;2023-05-07T13:34:51;20.10;68.40
26254;DHT22;53339;51.378;0.094;2023-05-07T13:37:37;20.20;66.70
26254;DHT22;53339;51.378;0.094;2023-05-07T13:40:25;20.20;68.40
26254;DHT22;53339;51.378;0.094;2023-05-07T13:43:11;20.20;69.60
26254;DHT22;53339;51.378;0.094;2023-05-07T13:45:54;20.20;68.70
26254;DHT22;53339;51.378;0.094;2023-05-07T13:48:52;20.00;70.30
26254;DHT22;53339;51.378;0.094;2023-05-07T13:52:03;20.10;69.10
26254;DHT22;53339;51.378;0.094;2023-05-07T13:54:51;20.80;68.10
26254;DHT22;53339;51.378;0.094;2023-05-07T13:58:02;21.60;66.10
26254;DHT22;53339;51.378;0.094;2023-05-07T14:00:53;21.70;65.00
26254;DHT22;53339;51.378;0.094;2023-05-07T14:03:45;21.80;65.00
26254;DHT22;53339;51.378;0.094;2023-05-07T14:06:49;22.40;60.20
26254;DHT22;53339;51.378;0.094;2023-05-07T14:13:33;22.90;54.80
26254;DHT22;53339;51.378;0.094;2023-05-07T14:16:27;23.30;54.80
26254;DHT22;53339;51.378;0.094;2023-05-07T14:19:10;24.10;55.10
26254;DHT22;53339;51.378;0.094;2023-05-07T14:22:15;24.40;56.50
26254;DHT22;53339;51.378;0.094;2023-05-07T14:25:12;24.10;54.50
26254;DHT22;53339;51.378;0.094;2023-05-07T14:28:15;23.30;53.00
26254;DHT22;53339;51.378;0.094;2023-05-07T14:31:14;23.70;56.50
26254;DHT22;53339;51.378;0.094;2023-05-07T14:34:10;24.60;55.70
26254;DHT22;53339;51.378;0.094;2023-05-07T14:37:10;24.60;50.60
26254;DHT22;53339;51.378;0.094;2023-05-07T14:39:54;24.90;53.40
26254;DHT22;53339;51.378;0.094;2023-05-07T14:43:05;25.20;47.90
26254;DHT22;53339;51.378;0.094;2023-05-07T14:45:45;25.20;50.40
26254;DHT22;53339;51.378;0.094;2023-05-07T14:48:32;25.60;48.20
26254;DHT22;53339;51.378;0.094;2023-05-07T14:51:24;25.90;45.60
26254;DHT22;53339;51.378;0.094;2023-05-07T14:54:04;26.10;46.80
26254;DHT22;53339;51.378;0.094;2023-05-07T14:57:00;26.40;47.70
26254;DHT22;53339;51.378;0.094;2023-05-07T15:00:15;27.10;50.30
26254;DHT22;53339;51.378;0.094;2023-05-07T15:03:06;27.90;45.90
26254;DHT22;53339;51.378;0.094;2023-05-07T15:06:19;28.20;41.70
26254;DHT22;53339;51.378;0.094;2023-05-07T15:09:47;28.20;41.00
26254;DHT22;53339;51.378;0.094;2023-05-07T15:12:39;28.00;44.10
26254;DHT22;53339;51.378;0.094;2023-05-07T15:15:24;28.00;41.50
26254;DHT22;53339;51.378;0.094;2023-05-07T15:18:03;28.10;44.80
26254;DHT22;53339;51.378;0.094;2023-05-07T15:20:44;28.20;43.70
26254;DHT22;53339;51.378;0.094;2023-05-07T15:23:30;28.30;42.60
26254;DHT22;53339;51.378;0.094;2023-05-07T15:26:25;28.20;42.40
26254;DHT22;53339;51.378;0.094;2023-05-07T15:29:28;28.00;41.40
26254;DHT22;53339;51.378;0.094;2023-05-07T15:32:21;27.80;41.50
26254;DHT22;53339;51.378;0.094;2023-05-07T15:35:14;27.90;40.70
26254;DHT22;53339;51.378;0.094;2023-05-07T15:38:24;28.00;39.60
26254;DHT22;53339;51.378;0.094;2023-05-07T15:44:28;28.20;40.30
26254;DHT22;53339;51.378;0.094;2023-05-07T15:47:34;28.10;40.30
26254;DHT22;53339;51.378;0.094;2023-05-07T15:50:16;28.20;41.60
26254;DHT22;53339;51.378;0.094;2023-05-07T15:56:33;28.70;42.70
26254;DHT22;53339;51.378;0.094;2023-05-07T15:59:17;28.70;41.70
26254;DHT22;53339;51.378;0.094;2023-05-07T16:01:55;28.70;41.80
26254;DHT22;53339;51.378;0.094;2023-05-07T16:05:06;28.80;40.60
26254;DHT22;53339;51.378;0.094;2023-05-07T16:08:06;28.70;41.60
26254;DHT22;53339;51.378;0.094;2023-05-07T16:10:52;28.30;36.70
26254;DHT22;53339;51.378;0.094;2023-05-07T16:13:34;27.10;39.50
26254;DHT22;53339;51.378;0.094;2023-05-07T16:16:35;25.90;39.50
26254;DHT22;53339;51.378;0.094;2023-05-07T16:19:29;24.50;43.60
26254;DHT22;53339;51.378;0.094;2023-05-07T16:22:13;23.60;44.20
26254;DHT22;53339;51.378;0.094;2023-05-07T16:25:11;22.90;47.60
26254;DHT22;53339;51.378;0.094;2023-05-07T16:31:28;22.10;49.70
26254;DHT22;53339;51.378;0.094;2023-05-07T16:34:39;21.70;51.00
26254;DHT22;53339;51.378;0.094;2023-05-07T16:37:45;21.40;51.50
26254;DHT22;53339;51.378;0.094;2023-05-07T16:40:26;21.30;52.10
26254;DHT22;53339;51.378;0.094;2023-05-07T16:43:27;21.20;53.20
26254;DHT22;53339;51.378;0.094;2023-05-07T16:46:29;21.10;53.10
26254;DHT22;53339;51.378;0.094;2023-05-07T16:49:29;20.90;53.20
26254;DHT22;53339;51.378;0.094;2023-05-07T16:52:18;20.70;53.40
26254;DHT22;53339;51.378;0.094;2023-05-07T16:55:13;20.60;54.40
26254;DHT22;53339;51.378;0.094;2023-05-07T16:58:26;20.60;54.20
26254;DHT22;53339;51.378;0.094;2023-05-07T17:01:14;20.50;55.00
26254;DHT22;53339;51.378;0.094;2023-05-07T17:04:03;20.50;55.90
26254;DHT22;53339;51.378;0.094;2023-05-07T17:06:49;20.50;55.30
26254;DHT22;53339;51.378;0.094;2023-05-07T17:09:57;20.50;55.20
26254;DHT22;53339;51.378;0.094;2023-05-07T17:12:42;20.50;54.80
26254;DHT22;53339;51.378;0.094;2023-05-07T17:19:04;20.30;55.40
26254;DHT22;53339;51.378;0.094;2023-05-07T17:25:35;20.00;56.20
26254;DHT22;53339;51.378;0.094;2023-05-07T17:29:28;19.80;57.00
26254;DHT22;53339;51.378;0.094;2023-05-07T17:32:16;19.80;57.20
26254;DHT22;53339;51.378;0.094;2023-05-07T17:34:59;19.80;57.40
26254;DHT22;53339;51.378;0.094;2023-05-07T17:37:45;19.80;56.80
26254;DHT22;53339;51.378;0.094;2023-05-07T17:40:51;20.00;57.10
26254;DHT22;53339;51.378;0.094;2023-05-07T17:43:53;20.60;56.60
26254;DHT22;53339;51.378;0.094;2023-05-07T17:46:33;21.60;56.30
26254;DHT22;53339;51.378;0.094;2023-05-07T17:49:38;22.30;54.10
26254;DHT22;53339;51.378;0.094;2023-05-07T17:52:52;22.80;53.30
26254;DHT22;53339;51.378;0.094;2023-05-07T17:55:49;23.00;50.70
26254;DHT22;53339;51.378;0.094;2023-05-07T17:58:31;22.90;51.60